Portada
METAR-TAF:

METAR-TAF

Aeroports :

Al-Riyad, Aràbia Saudita

latitud: 24-43N, longitud: 046-44E, altitud: 635 m

Observació

L'informe es va fer fa 15 hores i 49 minuts, a les 12:00 UTC
Vent 11 kt del Nord/Nord-Oest
Temperatura 18°C
Humitat 22%
Pressió 1018 hPa
Visibilitat 10 km o més
sense núvols per sota de 1500 mi sense presència de cumulonimbus.

METAR: OERY 201200Z 33011KT CAVOK 18/M04 Q1018

Hora: 06:49 (03:49 UTC)

Pronòstic

L'informe es va fer fa 4 hores i 49 minuts, a les 23:00 UTC
Pronòstic vàlid del 21 a les 00 UTC al 22 a les 06 UTC
Vent 3 kt amb direcció variable
Visibilitat 10 km o més
sense núvols per sota de 1500 mi sense presència de cumulonimbus.
Evolucionant progressivament
l' 21 a les 06 UTC al 21 a les 08 UTC
Vent 10 kt del Nord
Evolucionant progressivament
l' 21 a les 16 UTC al 21 a les 18 UTC
Vent 6 kt del Est/Nord-Est

TAF: OERY 202300Z 2100/2206 VRB03KT CAVOK BECMG 2106/2108 35010KT BECMG 2116/2118 07006KT

Observacions i pronòstics meteorològics de més de 4000 aeroports (METAR i TAF).

Les estacions disponibles són els punts grocs i vermells al mapa.

Posi el ratolí al punt desitjat per veure el nom de l'estació.

Feu clic per veure les observacions i els pronòstics meteorològics.

Per canviar el mapa: feu clic els botons verds amb una creu de color negre per apropar; al botó verd amb un guió per allunyar la imatge; o en les fletxes verdes per a mapes adjacents.


METAR-TAF: